createdAt,value
2023-02-25T00:00:56.226Z,998.58
2023-02-25T00:02:03.748Z,998.62
2023-02-25T00:02:56.206Z,998.65
2023-02-25T00:03:56.125Z,998.64
2023-02-25T00:04:56.107Z,998.61
2023-02-25T00:05:56.071Z,998.60
2023-02-25T00:06:56.054Z,998.64
2023-02-25T00:07:56.020Z,998.62
2023-02-25T00:08:55.999Z,998.56
2023-02-25T00:09:55.978Z,998.68
2023-02-25T00:10:55.936Z,998.64
2023-02-25T00:11:55.915Z,998.62
2023-02-25T00:12:58.957Z,998.65
2023-02-25T00:13:55.858Z,998.68
2023-02-25T00:14:55.868Z,998.67
2023-02-25T00:15:55.798Z,998.67
2023-02-25T00:16:55.962Z,998.63
2023-02-25T00:17:55.743Z,998.62
2023-02-25T00:18:55.712Z,998.66
2023-02-25T00:19:55.690Z,998.65
2023-02-25T00:20:55.659Z,998.65
2023-02-25T00:21:55.634Z,998.64
2023-02-25T00:22:55.613Z,998.57
2023-02-25T00:23:58.248Z,998.64
2023-02-25T00:24:55.548Z,998.61
2023-02-25T00:25:55.533Z,998.61
2023-02-25T00:26:55.507Z,998.65
2023-02-25T00:27:55.463Z,998.65
2023-02-25T00:28:55.435Z,998.64
2023-02-25T00:29:55.409Z,998.61
2023-02-25T00:30:55.494Z,998.63
2023-02-25T00:31:55.566Z,998.64
2023-02-25T00:32:55.406Z,998.65
2023-02-25T00:33:55.310Z,998.65
2023-02-25T00:34:55.274Z,998.69
2023-02-25T00:35:55.248Z,998.66
2023-02-25T00:36:55.256Z,998.66
2023-02-25T00:37:59.169Z,998.68
2023-02-25T00:38:55.173Z,998.69
2023-02-25T00:39:55.130Z,998.63
2023-02-25T00:40:55.115Z,998.61
2023-02-25T00:41:55.096Z,998.67
2023-02-25T00:42:55.062Z,998.71
2023-02-25T00:43:55.021Z,998.70
2023-02-25T00:44:54.993Z,998.75
2023-02-25T00:45:55.048Z,998.70
2023-02-25T00:46:54.936Z,998.77
2023-02-25T00:47:54.926Z,998.69
2023-02-25T00:48:54.887Z,998.73
2023-02-25T00:49:54.851Z,998.74
2023-02-25T00:50:54.827Z,998.76
2023-02-25T00:51:54.795Z,998.82
2023-02-25T00:52:54.776Z,998.85
2023-02-25T00:53:54.747Z,998.89
2023-02-25T00:54:54.721Z,998.83
2023-02-25T00:55:54.694Z,998.90
2023-02-25T00:56:54.666Z,998.88
2023-02-25T00:57:54.653Z,998.82
2023-02-25T00:58:54.606Z,998.83
2023-02-25T00:59:54.579Z,998.81
2023-02-25T01:00:54.561Z,998.82
2023-02-25T01:01:54.583Z,998.83
2023-02-25T01:02:54.542Z,998.84
2023-02-25T01:03:54.460Z,998.82
2023-02-25T01:04:54.440Z,998.87
2023-02-25T01:05:54.408Z,998.87
2023-02-25T01:06:54.386Z,998.83
2023-02-25T01:07:54.359Z,998.90
2023-02-25T01:08:54.418Z,998.89
2023-02-25T01:09:54.298Z,998.91
2023-02-25T01:10:54.279Z,998.93
2023-02-25T01:11:54.260Z,998.94
2023-02-25T01:12:54.221Z,998.92
2023-02-25T01:13:54.303Z,998.98
2023-02-25T01:14:54.161Z,998.96
2023-02-25T01:15:54.223Z,998.97
2023-02-25T01:16:54.105Z,998.96
2023-02-25T01:17:54.080Z,998.99
2023-02-25T01:18:54.045Z,998.94
2023-02-25T01:19:54.023Z,998.99
2023-02-25T01:20:53.994Z,999.01
2023-02-25T01:21:53.967Z,999.01
2023-02-25T01:22:53.942Z,998.98
2023-02-25T01:23:53.906Z,998.96
2023-02-25T01:24:53.890Z,998.97
2023-02-25T01:25:53.848Z,998.96
2023-02-25T01:26:53.828Z,998.93
2023-02-25T01:27:53.797Z,998.98
2023-02-25T01:28:53.774Z,998.93
2023-02-25T01:29:53.765Z,999.01
2023-02-25T01:30:53.804Z,998.93
2023-02-25T01:31:53.851Z,998.97
2023-02-25T01:32:53.755Z,998.99
2023-02-25T01:33:53.641Z,998.97
2023-02-25T01:34:53.606Z,999.03
2023-02-25T01:35:53.571Z,998.98
2023-02-25T01:36:53.564Z,999.01
2023-02-25T01:37:53.520Z,999.00
2023-02-25T01:38:53.498Z,999.03
2023-02-25T01:39:53.464Z,999.01
2023-02-25T01:40:53.439Z,998.98
2023-02-25T01:41:53.410Z,999.02
2023-02-25T01:42:53.390Z,999.00
2023-02-25T01:43:53.378Z,998.99
2023-02-25T01:44:53.333Z,998.98
2023-02-25T01:45:53.322Z,998.95
2023-02-25T01:46:53.444Z,998.96
2023-02-25T01:47:53.248Z,998.98
2023-02-25T01:48:53.226Z,999.02
2023-02-25T01:49:53.189Z,999.03
2023-02-25T01:50:53.173Z,999.05
2023-02-25T01:51:53.137Z,999.04
2023-02-25T01:52:53.133Z,999.03
2023-02-25T01:53:53.098Z,998.96
2023-02-25T01:54:53.055Z,999.01
2023-02-25T01:55:53.041Z,998.97
2023-02-25T01:56:53.001Z,998.98
2023-02-25T01:57:52.971Z,998.91
2023-02-25T01:58:52.956Z,998.96
2023-02-25T01:59:52.911Z,998.96
2023-02-25T02:00:52.924Z,999.00
2023-02-25T02:01:52.880Z,998.96
2023-02-25T02:02:52.908Z,998.95
2023-02-25T02:03:52.804Z,998.95
2023-02-25T02:04:52.780Z,998.94
2023-02-25T02:05:52.748Z,998.97
2023-02-25T02:06:52.725Z,999.02
2023-02-25T02:07:52.689Z,999.02
2023-02-25T02:08:52.669Z,999.01
2023-02-25T02:09:52.644Z,998.99
2023-02-25T02:10:52.610Z,999.01
2023-02-25T02:11:52.582Z,998.99
2023-02-25T02:12:52.556Z,998.97
2023-02-25T02:13:52.529Z,999.03
2023-02-25T02:14:52.501Z,998.98
2023-02-25T02:15:52.517Z,998.98
2023-02-25T02:16:52.460Z,998.92
2023-02-25T02:17:52.435Z,998.91
2023-02-25T02:18:52.392Z,998.93
2023-02-25T02:19:52.368Z,998.91
2023-02-25T02:20:52.344Z,998.90
2023-02-25T02:21:52.309Z,998.89
2023-02-25T02:22:52.301Z,998.89
2023-02-25T02:23:52.253Z,998.95
2023-02-25T02:24:52.225Z,998.95
2023-02-25T02:25:52.193Z,998.92
2023-02-25T02:26:52.182Z,998.91
2023-02-25T02:27:52.144Z,998.94
2023-02-25T02:28:52.112Z,998.95
2023-02-25T02:29:52.082Z,998.91
2023-02-25T02:30:52.096Z,998.93
2023-02-25T02:31:52.122Z,999.02
2023-02-25T02:32:52.014Z,998.99
2023-02-25T02:33:51.995Z,999.00
2023-02-25T02:34:51.944Z,998.98
2023-02-25T02:35:51.910Z,998.96
2023-02-25T02:36:51.887Z,999.06
2023-02-25T02:37:51.861Z,999.04
2023-02-25T02:38:51.840Z,998.99
2023-02-25T02:39:51.800Z,999.00
2023-02-25T02:40:51.780Z,998.97
2023-02-25T02:41:51.744Z,998.97
2023-02-25T02:42:51.723Z,999.00
2023-02-25T02:43:51.706Z,999.01
2023-02-25T02:44:51.666Z,999.01
2023-02-25T02:45:51.642Z,999.01
2023-02-25T02:46:51.605Z,999.03
2023-02-25T02:47:51.582Z,998.99
2023-02-25T02:48:51.558Z,998.98
2023-02-25T02:49:51.544Z,998.99
2023-02-25T02:50:51.492Z,998.91
2023-02-25T02:51:51.467Z,998.93
2023-02-25T02:52:51.434Z,998.93
2023-02-25T02:53:51.409Z,998.94
2023-02-25T02:54:51.384Z,998.95
2023-02-25T02:55:51.355Z,998.93
2023-02-25T02:56:51.330Z,998.90
2023-02-25T02:57:51.299Z,998.93
2023-02-25T02:58:51.268Z,998.93
2023-02-25T02:59:51.251Z,998.95
2023-02-25T03:00:51.274Z,998.93
2023-02-25T03:01:51.189Z,998.96
2023-02-25T03:02:51.166Z,998.98
2023-02-25T03:03:51.207Z,998.96
2023-02-25T03:04:51.103Z,999.00
2023-02-25T03:05:51.094Z,999.05
2023-02-25T03:06:51.050Z,999.05
2023-02-25T03:07:51.026Z,999.12
2023-02-25T03:08:50.985Z,999.10
2023-02-25T03:09:50.961Z,999.13
2023-02-25T03:10:50.933Z,999.14
2023-02-25T03:11:50.905Z,999.17
2023-02-25T03:12:50.877Z,999.14
2023-02-25T03:13:50.852Z,999.12
2023-02-25T03:14:50.820Z,999.12
2023-02-25T03:15:50.803Z,999.15
2023-02-25T03:16:50.818Z,999.14
2023-02-25T03:17:50.742Z,999.15
2023-02-25T03:18:50.718Z,999.15
2023-02-25T03:19:50.695Z,999.12
2023-02-25T03:20:50.661Z,999.11
2023-02-25T03:21:50.670Z,999.10
2023-02-25T03:22:50.601Z,999.09
2023-02-25T03:23:50.577Z,999.11
2023-02-25T03:24:50.553Z,999.11
2023-02-25T03:25:50.523Z,999.11
2023-02-25T03:26:50.497Z,999.10
2023-02-25T03:27:50.468Z,999.09
2023-02-25T03:28:50.444Z,999.10
2023-02-25T03:29:50.419Z,999.13
2023-02-25T03:30:50.512Z,999.14
2023-02-25T03:31:50.544Z,999.13
2023-02-25T03:32:50.381Z,999.20
2023-02-25T03:33:50.311Z,999.22
2023-02-25T03:34:50.273Z,999.20
2023-02-25T03:35:50.253Z,999.23
2023-02-25T03:36:50.221Z,999.24
2023-02-25T03:37:50.217Z,999.26
2023-02-25T03:38:50.162Z,999.24
2023-02-25T03:39:50.152Z,999.19
2023-02-25T03:40:50.109Z,999.21
2023-02-25T03:41:50.085Z,999.23
2023-02-25T03:42:50.055Z,999.21
2023-02-25T03:43:50.031Z,999.27
2023-02-25T03:44:49.995Z,999.24
2023-02-25T03:45:49.973Z,999.24
2023-02-25T03:46:49.942Z,999.28
2023-02-25T03:47:49.920Z,999.30
2023-02-25T03:48:49.889Z,999.36
2023-02-25T03:49:49.864Z,999.37
2023-02-25T03:50:49.833Z,999.37
2023-02-25T03:51:49.812Z,999.38
2023-02-25T03:52:49.777Z,999.37
2023-02-25T03:53:49.775Z,999.43
2023-02-25T03:54:49.720Z,999.43
2023-02-25T03:55:49.691Z,999.49
2023-02-25T03:56:49.664Z,999.49
2023-02-25T03:57:49.649Z,999.48
2023-02-25T03:58:49.618Z,999.49
2023-02-25T03:59:49.591Z,999.49
2023-02-25T04:00:49.578Z,999.50
2023-02-25T04:01:49.526Z,999.53
2023-02-25T04:02:49.644Z,999.58
2023-02-25T04:03:49.513Z,999.62
2023-02-25T04:04:49.550Z,999.58
2023-02-25T04:05:49.417Z,999.60
2023-02-25T04:06:49.382Z,999.55
2023-02-25T04:07:49.375Z,999.56
2023-02-25T04:08:49.326Z,999.61
2023-02-25T04:09:49.353Z,999.56
2023-02-25T04:10:49.289Z,999.56
2023-02-25T04:11:49.251Z,999.64
2023-02-25T04:12:49.220Z,999.61
2023-02-25T04:13:49.200Z,999.61
2023-02-25T04:14:49.173Z,999.60
2023-02-25T04:15:49.289Z,999.57
2023-02-25T04:16:49.104Z,999.60
2023-02-25T04:17:49.077Z,999.54
2023-02-25T04:18:49.052Z,999.60
2023-02-25T04:19:49.031Z,999.54
2023-02-25T04:20:48.995Z,999.53
2023-02-25T04:21:48.973Z,999.58
2023-02-25T04:22:48.939Z,999.56
2023-02-25T04:23:48.914Z,999.59
2023-02-25T04:24:48.883Z,999.60
2023-02-25T04:25:48.889Z,999.63
2023-02-25T04:26:48.829Z,999.64
2023-02-25T04:27:48.801Z,999.62
2023-02-25T04:28:48.792Z,999.64
2023-02-25T04:29:48.748Z,999.61
2023-02-25T04:30:48.928Z,999.56
2023-02-25T04:31:48.886Z,999.63
2023-02-25T04:32:48.839Z,999.59
2023-02-25T04:33:48.638Z,999.63
2023-02-25T04:34:48.604Z,999.65
2023-02-25T04:35:48.584Z,999.63
2023-02-25T04:36:48.545Z,999.63
2023-02-25T04:37:48.523Z,999.63
2023-02-25T04:38:48.492Z,999.63
2023-02-25T04:39:48.491Z,999.59
2023-02-25T04:40:48.437Z,999.58
2023-02-25T04:41:48.448Z,999.60
2023-02-25T04:42:48.394Z,999.58
2023-02-25T04:43:48.362Z,999.62
2023-02-25T04:44:48.322Z,999.62
2023-02-25T04:45:48.313Z,999.64
2023-02-25T04:46:48.376Z,999.63
2023-02-25T04:47:48.249Z,999.63
2023-02-25T04:48:48.212Z,999.67
2023-02-25T04:49:48.197Z,999.67
2023-02-25T04:50:48.166Z,999.65
2023-02-25T04:51:48.131Z,999.66
2023-02-25T04:52:48.116Z,999.66
2023-02-25T04:53:48.084Z,999.72
2023-02-25T04:54:48.055Z,999.67
2023-02-25T04:55:48.024Z,999.68
2023-02-25T04:56:48.000Z,999.71
2023-02-25T04:57:48.009Z,999.72
2023-02-25T04:58:47.937Z,999.71
2023-02-25T04:59:47.915Z,999.66
2023-02-25T05:00:47.883Z,999.66
2023-02-25T05:01:47.903Z,999.67
2023-02-25T05:02:47.829Z,999.67
2023-02-25T05:03:47.801Z,999.63
2023-02-25T05:04:47.811Z,999.67
2023-02-25T05:05:47.747Z,999.71
2023-02-25T05:06:47.723Z,999.72
2023-02-25T05:07:47.689Z,999.72
2023-02-25T05:08:47.664Z,999.72
2023-02-25T05:09:47.642Z,999.73
2023-02-25T05:10:47.608Z,999.70
2023-02-25T05:11:47.589Z,999.71
2023-02-25T05:12:47.577Z,999.74
2023-02-25T05:13:47.551Z,999.68
2023-02-25T05:14:47.499Z,999.64
2023-02-25T05:15:47.505Z,999.68
2023-02-25T05:16:47.449Z,999.72
2023-02-25T05:17:47.421Z,999.70
2023-02-25T05:18:47.391Z,999.73
2023-02-25T05:19:47.366Z,999.72
2023-02-25T05:20:47.416Z,999.66
2023-02-25T05:21:47.308Z,999.69
2023-02-25T05:22:47.281Z,999.74
2023-02-25T05:23:47.259Z,999.72
2023-02-25T05:24:47.229Z,999.77
2023-02-25T05:25:47.199Z,999.75
2023-02-25T05:26:47.172Z,999.75
2023-02-25T05:27:47.142Z,999.74
2023-02-25T05:28:47.113Z,999.75
2023-02-25T05:29:47.154Z,999.76
2023-02-25T05:30:47.123Z,999.75
2023-02-25T05:31:47.304Z,999.74
2023-02-25T05:32:47.206Z,999.72
2023-02-25T05:33:47.005Z,999.75
2023-02-25T05:34:46.953Z,999.75
2023-02-25T05:35:46.927Z,999.73
2023-02-25T05:36:46.972Z,999.78
2023-02-25T05:37:46.869Z,999.76
2023-02-25T05:38:46.832Z,999.74
2023-02-25T05:39:46.809Z,999.78
2023-02-25T05:40:46.781Z,999.76
2023-02-25T05:41:46.753Z,999.78
2023-02-25T05:42:46.726Z,999.80
2023-02-25T05:43:46.703Z,999.83
2023-02-25T05:44:46.672Z,999.88
2023-02-25T05:45:46.670Z,999.83
2023-02-25T05:46:46.681Z,999.80
2023-02-25T05:47:46.588Z,999.83
2023-02-25T05:48:46.577Z,999.84
2023-02-25T05:49:46.536Z,999.82
2023-02-25T05:50:46.509Z,999.87
2023-02-25T05:51:46.476Z,999.91
2023-02-25T05:52:46.458Z,999.89
2023-02-25T05:53:46.435Z,999.95
2023-02-25T05:54:46.391Z,999.93
2023-02-25T05:55:46.377Z,999.88
2023-02-25T05:56:46.339Z,999.88
2023-02-25T05:57:46.312Z,999.90
2023-02-25T05:58:46.284Z,999.90
2023-02-25T05:59:46.254Z,999.90
2023-02-25T06:00:46.221Z,999.91
2023-02-25T06:01:46.316Z,999.90
2023-02-25T06:02:46.194Z,999.93
2023-02-25T06:03:46.159Z,999.92
2023-02-25T06:04:46.119Z,999.94
2023-02-25T06:05:47.928Z,999.92
2023-02-25T06:06:46.065Z,999.96
2023-02-25T06:07:46.035Z,999.97
2023-02-25T06:08:46.038Z,999.97
2023-02-25T06:09:45.975Z,1000.00
2023-02-25T06:10:45.947Z,999.94
2023-02-25T06:11:45.923Z,1000.00
2023-02-25T06:12:46.617Z,1000.00
2023-02-25T06:13:45.873Z,1000.10
2023-02-25T06:14:45.837Z,1000.10
2023-02-25T06:15:45.812Z,1000.15
2023-02-25T06:16:45.823Z,1000.14
2023-02-25T06:17:45.775Z,1000.13
2023-02-25T06:18:46.580Z,1000.18
2023-02-25T06:19:45.699Z,1000.08
2023-02-25T06:20:45.669Z,1000.04
2023-02-25T06:21:45.641Z,1000.03
2023-02-25T06:22:45.628Z,1000.08
2023-02-25T06:23:45.591Z,1000.06
2023-02-25T06:24:45.558Z,1000.05
2023-02-25T06:25:45.535Z,1000.08
2023-02-25T06:26:45.498Z,1000.06
2023-02-25T06:27:45.475Z,1000.12
2023-02-25T06:28:45.481Z,1000.15
2023-02-25T06:29:45.430Z,1000.22
2023-02-25T06:30:45.415Z,1000.22
2023-02-25T06:31:45.521Z,1000.26
2023-02-25T06:32:45.447Z,1000.24
2023-02-25T06:33:45.333Z,1000.32
2023-02-25T06:34:45.314Z,1000.32
2023-02-25T06:35:45.252Z,1000.38
2023-02-25T06:36:45.225Z,1000.39
2023-02-25T06:37:45.200Z,1000.39
2023-02-25T06:38:45.169Z,1000.41
2023-02-25T06:39:45.191Z,1000.49
2023-02-25T06:40:45.112Z,1000.49
2023-02-25T06:41:45.097Z,1000.47
2023-02-25T06:42:45.059Z,1000.46
2023-02-25T06:43:45.044Z,1000.49
2023-02-25T06:44:45.002Z,1000.47
2023-02-25T06:45:45.025Z,1000.56
2023-02-25T06:46:44.949Z,1000.65
2023-02-25T06:47:44.921Z,1000.75
2023-02-25T06:48:44.895Z,1000.79
2023-02-25T06:49:44.901Z,1000.86
2023-02-25T06:50:44.846Z,1000.81
2023-02-25T06:51:44.809Z,1000.82
2023-02-25T06:52:44.781Z,1000.74
2023-02-25T06:53:44.759Z,1000.87
2023-02-25T06:54:44.739Z,1000.88
2023-02-25T06:55:44.705Z,1000.95
2023-02-25T06:56:44.673Z,1000.96
2023-02-25T06:57:44.649Z,1001.02
2023-02-25T06:58:44.621Z,1000.94
2023-02-25T06:59:44.593Z,1000.97
2023-02-25T07:00:44.566Z,1000.98
2023-02-25T07:01:44.538Z,1000.97
2023-02-25T07:02:44.516Z,1000.91
2023-02-25T07:03:44.472Z,1000.89
2023-02-25T07:04:44.509Z,1000.84
2023-02-25T07:05:44.437Z,1000.82
2023-02-25T07:06:44.401Z,1000.82
2023-02-25T07:07:44.363Z,1000.75
2023-02-25T07:08:44.344Z,1000.76
2023-02-25T07:09:44.308Z,1000.78
2023-02-25T07:10:44.286Z,1000.80
2023-02-25T07:11:44.252Z,1000.81
2023-02-25T07:12:44.233Z,1000.82
2023-02-25T07:13:44.200Z,1000.80
2023-02-25T07:14:44.178Z,1000.84
2023-02-25T07:15:44.224Z,1000.87
2023-02-25T07:16:44.120Z,1000.89
2023-02-25T07:17:44.081Z,1000.90
2023-02-25T07:18:44.059Z,1000.88
2023-02-25T07:19:44.044Z,1000.86
2023-02-25T07:20:44.011Z,1000.91
2023-02-25T07:21:44.005Z,1000.91
2023-02-25T07:22:43.954Z,1000.98
2023-02-25T07:23:43.915Z,1000.99
2023-02-25T07:24:43.894Z,1001.00
2023-02-25T07:25:43.873Z,1001.04
2023-02-25T07:26:43.836Z,1001.09
2023-02-25T07:27:44.916Z,1001.07
2023-02-25T07:28:43.792Z,1001.14
2023-02-25T07:29:43.762Z,1001.18
2023-02-25T07:30:43.838Z,1001.20
2023-02-25T07:31:43.881Z,1001.21
2023-02-25T07:32:43.779Z,1001.17
2023-02-25T07:33:43.642Z,1001.23
2023-02-25T07:34:43.614Z,1001.25
2023-02-25T07:35:43.597Z,1001.27
2023-02-25T07:36:43.562Z,1001.25
2023-02-25T07:37:43.556Z,1001.27
2023-02-25T07:38:43.527Z,1001.24
2023-02-25T07:39:43.475Z,1001.23
2023-02-25T07:40:43.449Z,1001.24
2023-02-25T07:41:43.427Z,1001.26
2023-02-25T07:42:43.444Z,1001.28
2023-02-25T07:43:43.378Z,1001.25
2023-02-25T07:44:43.341Z,1001.28
2023-02-25T07:45:43.364Z,1001.28
2023-02-25T07:46:43.294Z,1001.28
2023-02-25T07:47:43.257Z,1001.28
2023-02-25T07:48:43.232Z,1001.31
2023-02-25T07:49:43.205Z,1001.33
2023-02-25T07:50:43.178Z,1001.37
2023-02-25T07:51:43.152Z,1001.34
2023-02-25T07:52:43.152Z,1001.39
2023-02-25T07:53:43.102Z,1001.38
2023-02-25T07:54:43.092Z,1001.39
2023-02-25T07:55:43.049Z,1001.39
2023-02-25T07:56:43.010Z,1001.41
2023-02-25T07:57:43.036Z,1001.40
2023-02-25T07:58:42.970Z,1001.41
2023-02-25T07:59:42.933Z,1001.42
2023-02-25T08:00:42.907Z,1001.46
2023-02-25T08:01:42.925Z,1001.40
2023-02-25T08:02:42.941Z,1001.42
2023-02-25T08:03:42.823Z,1001.47
2023-02-25T08:04:42.843Z,1001.42
2023-02-25T08:05:42.768Z,1001.43
2023-02-25T08:06:42.780Z,1001.40
2023-02-25T08:07:42.717Z,1001.41
2023-02-25T08:08:42.685Z,1001.47
2023-02-25T08:09:42.665Z,1001.47
2023-02-25T08:10:42.635Z,1001.46
2023-02-25T08:11:42.597Z,1001.45
2023-02-25T08:12:42.568Z,1001.45
2023-02-25T08:13:42.543Z,1001.50
2023-02-25T08:14:42.519Z,1001.54
2023-02-25T08:15:42.528Z,1001.57
2023-02-25T08:16:42.464Z,1001.61
2023-02-25T08:17:42.431Z,1001.62
2023-02-25T08:18:42.402Z,1001.64
2023-02-25T08:19:42.372Z,1001.61
2023-02-25T08:20:42.350Z,1001.63
2023-02-25T08:21:42.320Z,1001.62
2023-02-25T08:22:42.291Z,1001.65
2023-02-25T08:23:42.267Z,1001.65
2023-02-25T08:24:42.236Z,1001.61
2023-02-25T08:25:42.243Z,1001.64
2023-02-25T08:26:42.186Z,1001.66
2023-02-25T08:27:42.163Z,1001.71
2023-02-25T08:28:42.124Z,1001.76
2023-02-25T08:29:42.099Z,1001.74
2023-02-25T08:30:42.137Z,1001.79
2023-02-25T08:31:42.475Z,1001.80
2023-02-25T08:32:42.302Z,1001.80
2023-02-25T08:33:41.988Z,1001.75
2023-02-25T08:34:41.979Z,1001.85
2023-02-25T08:35:41.933Z,1001.81
2023-02-25T08:36:41.908Z,1001.81
2023-02-25T08:37:41.879Z,1001.75
2023-02-25T08:38:41.855Z,1001.72
2023-02-25T08:39:41.822Z,1001.72
2023-02-25T08:40:41.812Z,1001.75
2023-02-25T08:41:41.798Z,1001.76
2023-02-25T08:42:41.752Z,1001.76
2023-02-25T08:43:41.722Z,1001.78
2023-02-25T08:44:41.697Z,1001.79
2023-02-25T08:45:41.662Z,1001.84
2023-02-25T08:46:41.682Z,1001.82
2023-02-25T08:47:41.605Z,1001.84
2023-02-25T08:48:41.588Z,1001.85
2023-02-25T08:49:41.554Z,1001.84
2023-02-25T08:50:41.519Z,1001.87
2023-02-25T08:51:41.487Z,1001.85
2023-02-25T08:52:42.326Z,1001.85
2023-02-25T08:53:41.433Z,1001.84
2023-02-25T08:54:41.428Z,1001.83
2023-02-25T08:55:41.385Z,1001.87
2023-02-25T08:56:41.353Z,1001.83
2023-02-25T08:57:41.346Z,1001.82
2023-02-25T08:58:41.344Z,1001.82
2023-02-25T08:59:41.263Z,1001.78
2023-02-25T09:00:41.356Z,1001.74
2023-02-25T09:01:41.212Z,1001.77
2023-02-25T09:02:41.200Z,1001.77
2023-02-25T09:03:41.155Z,1001.82
2023-02-25T09:04:41.214Z,1001.85
2023-02-25T09:05:41.101Z,1001.88
2023-02-25T09:06:41.105Z,1001.90
2023-02-25T09:07:41.041Z,1001.92
2023-02-25T09:08:41.023Z,1001.95
2023-02-25T09:09:40.992Z,1001.99
2023-02-25T09:10:49.905Z,1002.02
2023-02-25T09:11:40.936Z,1002.01
2023-02-25T09:12:40.908Z,1002.08
2023-02-25T09:13:40.898Z,1002.04
2023-02-25T09:14:40.857Z,1002.01
2023-02-25T09:15:40.822Z,1001.99
2023-02-25T09:16:40.872Z,1002.03
2023-02-25T09:17:40.769Z,1002.02
2023-02-25T09:18:40.749Z,1002.02
2023-02-25T09:19:40.716Z,1002.09
2023-02-25T09:20:40.686Z,1002.01
2023-02-25T09:21:40.669Z,1002.05
2023-02-25T09:22:40.644Z,1002.05
2023-02-25T09:23:40.613Z,1002.10
2023-02-25T09:24:40.580Z,1002.16
2023-02-25T09:25:40.552Z,1002.14
2023-02-25T09:26:40.533Z,1002.15
2023-02-25T09:27:40.496Z,1002.15
2023-02-25T09:28:40.473Z,1002.15
2023-02-25T09:29:40.465Z,1002.15
2023-02-25T09:30:40.559Z,1002.17
2023-02-25T09:31:40.599Z,1002.19
2023-02-25T09:32:40.545Z,1002.19
2023-02-25T09:33:40.332Z,1002.20
2023-02-25T09:34:40.310Z,1002.21
2023-02-25T09:35:40.290Z,1002.21
2023-02-25T09:36:40.256Z,1002.24
2023-02-25T09:37:40.230Z,1002.23
2023-02-25T09:38:40.197Z,1002.28
2023-02-25T09:39:40.167Z,1002.25
2023-02-25T09:40:40.147Z,1002.27
2023-02-25T09:41:40.114Z,1002.26
2023-02-25T09:42:40.085Z,1002.29
2023-02-25T09:43:40.061Z,1002.33
2023-02-25T09:44:40.033Z,1002.36
2023-02-25T09:45:40.099Z,1002.32
2023-02-25T09:46:39.973Z,1002.38
2023-02-25T09:47:39.970Z,1002.37
2023-02-25T09:48:39.917Z,1002.34
2023-02-25T09:49:39.899Z,1002.33
2023-02-25T09:50:39.866Z,1002.36
2023-02-25T09:51:39.837Z,1002.41
2023-02-25T09:52:39.815Z,1002.46
2023-02-25T09:53:39.789Z,1002.44
2023-02-25T09:54:39.775Z,1002.44
2023-02-25T09:55:39.725Z,1002.45
2023-02-25T09:56:39.702Z,1002.44
2023-02-25T09:57:39.674Z,1002.56
2023-02-25T09:58:39.650Z,1002.57
2023-02-25T09:59:39.617Z,1002.55
2023-02-25T10:00:39.595Z,1002.62
2023-02-25T10:01:39.664Z,1002.63
2023-02-25T10:02:39.594Z,1002.70
2023-02-25T10:03:39.507Z,1002.70
2023-02-25T10:04:39.481Z,1002.76
2023-02-25T10:05:39.453Z,1002.69
2023-02-25T10:06:39.456Z,1002.71
2023-02-25T10:07:39.395Z,1002.66
2023-02-25T10:08:39.377Z,1002.70
2023-02-25T10:09:39.346Z,1002.74
2023-02-25T10:10:39.340Z,1002.77
2023-02-25T10:11:39.287Z,1002.78
2023-02-25T10:12:39.270Z,1002.75
2023-02-25T10:13:39.233Z,1002.78
2023-02-25T10:14:39.223Z,1002.89
2023-02-25T10:15:39.179Z,1002.89
2023-02-25T10:16:39.276Z,1002.90
2023-02-25T10:17:39.145Z,1002.92
2023-02-25T10:18:39.097Z,1002.98
2023-02-25T10:19:39.064Z,1002.94
2023-02-25T10:20:39.041Z,1002.92
2023-02-25T10:21:39.020Z,1002.96
2023-02-25T10:22:38.988Z,1003.02
2023-02-25T10:23:38.955Z,1002.95
2023-02-25T10:24:38.940Z,1002.96
2023-02-25T10:25:38.909Z,1002.95
2023-02-25T10:26:38.877Z,1003.04
2023-02-25T10:27:38.846Z,1003.04
2023-02-25T10:28:38.816Z,1003.06
2023-02-25T10:29:38.787Z,1003.11
2023-02-25T10:30:38.861Z,1003.07
2023-02-25T10:31:38.904Z,1003.13
2023-02-25T10:32:38.784Z,1003.19
2023-02-25T10:33:38.700Z,1003.24
2023-02-25T10:34:38.650Z,1003.17
2023-02-25T10:35:38.622Z,1003.13
2023-02-25T10:36:38.597Z,1003.19
2023-02-25T10:37:38.565Z,1003.16
2023-02-25T10:38:38.545Z,1003.18
2023-02-25T10:39:38.507Z,1003.16
2023-02-25T10:40:38.483Z,1003.21
2023-02-25T10:41:38.455Z,1003.24
2023-02-25T10:42:38.443Z,1003.21
2023-02-25T10:43:38.401Z,1003.25
2023-02-25T10:44:38.370Z,1003.15
2023-02-25T10:45:38.351Z,1003.28
2023-02-25T10:46:38.418Z,1003.22
2023-02-25T10:47:38.287Z,1003.32
2023-02-25T10:48:38.261Z,1003.21
2023-02-25T10:49:38.444Z,1003.29
2023-02-25T10:50:46.028Z,1003.25
2023-02-25T10:51:38.175Z,1003.32
2023-02-25T10:52:38.150Z,1003.32
2023-02-25T10:53:38.128Z,1003.34
2023-02-25T10:54:38.094Z,1003.36
2023-02-25T10:55:38.064Z,1003.34
2023-02-25T10:56:38.047Z,1003.30
2023-02-25T10:57:38.014Z,1003.26
2023-02-25T10:58:37.991Z,1003.33
2023-02-25T10:59:37.955Z,1003.33
2023-02-25T11:00:37.931Z,1003.32
2023-02-25T11:01:37.929Z,1003.30
2023-02-25T11:02:37.928Z,1003.32
2023-02-25T11:03:37.851Z,1003.50
2023-02-25T11:04:37.834Z,1003.38
2023-02-25T11:05:37.835Z,1003.38
2023-02-25T11:06:37.769Z,1003.34
2023-02-25T11:07:37.732Z,1003.40
2023-02-25T11:08:37.710Z,1003.43
2023-02-25T11:09:37.678Z,1003.46
2023-02-25T11:10:37.666Z,1003.45
2023-02-25T11:11:37.627Z,1003.50
2023-02-25T11:12:37.600Z,1003.43
2023-02-25T11:13:37.571Z,1003.51
2023-02-25T11:14:37.549Z,1003.51
2023-02-25T11:15:45.400Z,1003.57
2023-02-25T11:16:37.586Z,1003.56
2023-02-25T11:17:37.471Z,1003.56
2023-02-25T11:18:37.439Z,1003.51
2023-02-25T11:19:37.406Z,1003.60
2023-02-25T11:20:37.380Z,1003.59
2023-02-25T11:21:37.393Z,1003.58
2023-02-25T11:22:37.348Z,1003.53
2023-02-25T11:23:37.297Z,1003.48
2023-02-25T11:24:37.271Z,1003.52
2023-02-25T11:25:37.239Z,1003.52
2023-02-25T11:26:37.217Z,1003.58
2023-02-25T11:27:39.109Z,1003.64
2023-02-25T11:28:37.160Z,1003.73
2023-02-25T11:29:37.133Z,1003.64
2023-02-25T11:30:37.141Z,1003.68
2023-02-25T11:31:37.255Z,1003.69
2023-02-25T11:32:37.071Z,1003.68
2023-02-25T11:33:37.022Z,1003.73
2023-02-25T11:34:36.996Z,1003.69
2023-02-25T11:35:36.968Z,1003.71
2023-02-25T11:36:36.937Z,1003.61
2023-02-25T11:37:37.130Z,1003.64
2023-02-25T11:38:36.878Z,1003.69
2023-02-25T11:39:36.851Z,1003.69
2023-02-25T11:40:36.824Z,1003.71
2023-02-25T11:41:36.805Z,1003.69
2023-02-25T11:42:36.770Z,1003.72
2023-02-25T11:43:36.754Z,1003.73
2023-02-25T11:44:36.712Z,1003.74
2023-02-25T11:45:36.683Z,1003.75
2023-02-25T11:46:36.739Z,1003.77
2023-02-25T11:47:36.642Z,1003.78
2023-02-25T11:48:36.603Z,1003.75
2023-02-25T11:49:36.576Z,1003.67
2023-02-25T11:50:36.543Z,1003.70
2023-02-25T11:51:36.523Z,1003.72
2023-02-25T11:52:36.491Z,1003.71
2023-02-25T11:53:36.548Z,1003.83
2023-02-25T11:54:36.446Z,1003.83
2023-02-25T11:55:36.411Z,1003.90
2023-02-25T11:56:36.381Z,1003.77
2023-02-25T11:57:36.359Z,1003.83
2023-02-25T11:58:36.328Z,1003.79
2023-02-25T11:59:36.303Z,1003.80
2023-02-25T12:00:36.278Z,1003.83
2023-02-25T12:01:36.249Z,1003.82
2023-02-25T12:02:36.272Z,1003.84
2023-02-25T12:03:36.196Z,1003.91
2023-02-25T12:04:36.163Z,1003.83
2023-02-25T12:05:36.186Z,1003.88
2023-02-25T12:06:36.106Z,1003.94
2023-02-25T12:07:36.080Z,1003.91
2023-02-25T12:08:36.047Z,1003.95
2023-02-25T12:09:36.062Z,1003.95
2023-02-25T12:10:36.000Z,1003.89
2023-02-25T12:11:35.972Z,1003.95
2023-02-25T12:12:35.942Z,1003.92
2023-02-25T12:13:35.968Z,1003.96
2023-02-25T12:14:35.895Z,1003.86
2023-02-25T12:15:35.862Z,1003.88
2023-02-25T12:16:35.929Z,1003.87
2023-02-25T12:17:35.814Z,1003.97